sensor_id;sensor_type;location;lat;lon;timestamp;P1;durP1;ratioP1;P2;durP2;ratioP2
12635;SDS011;6383;50.830;7.210;2023-06-14T00:00:04;5.07;;;4.57;;
12635;SDS011;6383;50.830;7.210;2023-06-14T00:02:33;5.87;;;4.47;;
12635;SDS011;6383;50.830;7.210;2023-06-14T00:05:01;8.18;;;4.50;;
12635;SDS011;6383;50.830;7.210;2023-06-14T00:07:36;6.15;;;4.97;;
12635;SDS011;6383;50.830;7.210;2023-06-14T00:10:08;9.43;;;4.68;;
12635;SDS011;6383;50.830;7.210;2023-06-14T00:12:37;5.13;;;4.28;;
12635;SDS011;6383;50.830;7.210;2023-06-14T00:15:07;7.28;;;4.90;;
12635;SDS011;6383;50.830;7.210;2023-06-14T00:17:35;8.65;;;5.10;;
12635;SDS011;6383;50.830;7.210;2023-06-14T00:20:06;6.80;;;4.80;;
12635;SDS011;6383;50.830;7.210;2023-06-14T00:22:38;6.15;;;4.82;;
12635;SDS011;6383;50.830;7.210;2023-06-14T00:25:07;5.70;;;5.10;;
12635;SDS011;6383;50.830;7.210;2023-06-14T00:27:34;5.13;;;4.63;;
12635;SDS011;6383;50.830;7.210;2023-06-14T00:30:04;6.13;;;5.53;;
12635;SDS011;6383;50.830;7.210;2023-06-14T00:32:33;6.15;;;4.80;;
12635;SDS011;6383;50.830;7.210;2023-06-14T00:35:02;5.78;;;5.28;;
12635;SDS011;6383;50.830;7.210;2023-06-14T00:37:31;5.53;;;5.00;;
12635;SDS011;6383;50.830;7.210;2023-06-14T00:40:00;7.90;;;5.55;;
12635;SDS011;6383;50.830;7.210;2023-06-14T00:42:27;6.80;;;5.43;;
12635;SDS011;6383;50.830;7.210;2023-06-14T00:44:57;7.75;;;5.60;;
12635;SDS011;6383;50.830;7.210;2023-06-14T00:47:25;6.82;;;5.15;;
12635;SDS011;6383;50.830;7.210;2023-06-14T00:49:54;6.38;;;5.10;;
12635;SDS011;6383;50.830;7.210;2023-06-14T00:52:23;6.27;;;4.80;;
12635;SDS011;6383;50.830;7.210;2023-06-14T00:54:53;6.13;;;4.65;;
12635;SDS011;6383;50.830;7.210;2023-06-14T00:57:22;5.40;;;4.82;;
12635;SDS011;6383;50.830;7.210;2023-06-14T00:59:51;7.25;;;4.80;;
12635;SDS011;6383;50.830;7.210;2023-06-14T01:02:20;6.38;;;5.30;;
12635;SDS011;6383;50.830;7.210;2023-06-14T01:04:48;8.75;;;5.70;;
12635;SDS011;6383;50.830;7.210;2023-06-14T01:07:18;6.22;;;5.63;;
12635;SDS011;6383;50.830;7.210;2023-06-14T01:09:58;5.93;;;5.30;;
12635;SDS011;6383;50.830;7.210;2023-06-14T01:12:44;5.85;;;4.65;;
12635;SDS011;6383;50.830;7.210;2023-06-14T01:15:19;6.47;;;4.40;;
12635;SDS011;6383;50.830;7.210;2023-06-14T01:17:50;8.40;;;5.25;;
12635;SDS011;6383;50.830;7.210;2023-06-14T01:20:21;9.48;;;5.50;;
12635;SDS011;6383;50.830;7.210;2023-06-14T01:22:51;5.43;;;4.93;;
12635;SDS011;6383;50.830;7.210;2023-06-14T01:25:21;6.07;;;4.90;;
12635;SDS011;6383;50.830;7.210;2023-06-14T01:27:53;5.28;;;4.35;;
12635;SDS011;6383;50.830;7.210;2023-06-14T01:30:25;6.75;;;4.63;;
12635;SDS011;6383;50.830;7.210;2023-06-14T01:32:54;5.00;;;4.50;;
12635;SDS011;6383;50.830;7.210;2023-06-14T01:35:22;4.53;;;4.13;;
12635;SDS011;6383;50.830;7.210;2023-06-14T01:37:51;5.40;;;4.90;;
12635;SDS011;6383;50.830;7.210;2023-06-14T01:40:21;5.80;;;4.47;;
12635;SDS011;6383;50.830;7.210;2023-06-14T01:42:52;5.43;;;4.93;;
12635;SDS011;6383;50.830;7.210;2023-06-14T01:45:21;9.07;;;5.32;;
12635;SDS011;6383;50.830;7.210;2023-06-14T01:47:51;7.40;;;5.05;;
12635;SDS011;6383;50.830;7.210;2023-06-14T01:50:20;6.22;;;4.40;;
12635;SDS011;6383;50.830;7.210;2023-06-14T01:52:49;5.47;;;4.65;;
12635;SDS011;6383;50.830;7.210;2023-06-14T01:55:20;6.20;;;5.38;;
12635;SDS011;6383;50.830;7.210;2023-06-14T01:57:49;6.68;;;5.13;;
12635;SDS011;6383;50.830;7.210;2023-06-14T02:00:17;7.50;;;4.97;;
12635;SDS011;6383;50.830;7.210;2023-06-14T02:02:46;6.05;;;5.50;;
12635;SDS011;6383;50.830;7.210;2023-06-14T02:05:16;6.43;;;5.82;;
12635;SDS011;6383;50.830;7.210;2023-06-14T02:07:45;9.53;;;5.93;;
12635;SDS011;6383;50.830;7.210;2023-06-14T02:10:15;8.23;;;5.40;;
12635;SDS011;6383;50.830;7.210;2023-06-14T02:12:43;5.70;;;5.20;;
12635;SDS011;6383;50.830;7.210;2023-06-14T02:15:13;6.55;;;5.07;;
12635;SDS011;6383;50.830;7.210;2023-06-14T02:17:43;5.88;;;5.28;;
12635;SDS011;6383;50.830;7.210;2023-06-14T02:20:14;5.75;;;5.28;;
12635;SDS011;6383;50.830;7.210;2023-06-14T02:22:43;6.67;;;5.23;;
12635;SDS011;6383;50.830;7.210;2023-06-14T02:25:11;5.90;;;4.90;;
12635;SDS011;6383;50.830;7.210;2023-06-14T02:27:43;5.40;;;4.50;;
12635;SDS011;6383;50.830;7.210;2023-06-14T02:30:11;5.10;;;4.35;;
12635;SDS011;6383;50.830;7.210;2023-06-14T02:32:39;5.32;;;4.50;;
12635;SDS011;6383;50.830;7.210;2023-06-14T02:35:09;5.57;;;4.55;;
12635;SDS011;6383;50.830;7.210;2023-06-14T02:37:37;5.32;;;4.40;;
12635;SDS011;6383;50.830;7.210;2023-06-14T02:40:06;6.30;;;4.70;;
12635;SDS011;6383;50.830;7.210;2023-06-14T02:42:36;5.57;;;4.80;;
12635;SDS011;6383;50.830;7.210;2023-06-14T02:45:07;7.25;;;5.30;;
12635;SDS011;6383;50.830;7.210;2023-06-14T02:47:37;5.35;;;4.85;;
12635;SDS011;6383;50.830;7.210;2023-06-14T02:50:08;5.40;;;4.90;;
12635;SDS011;6383;50.830;7.210;2023-06-14T02:52:36;6.53;;;4.78;;
12635;SDS011;6383;50.830;7.210;2023-06-14T02:55:04;4.78;;;4.38;;
12635;SDS011;6383;50.830;7.210;2023-06-14T02:57:34;5.63;;;5.10;;
12635;SDS011;6383;50.830;7.210;2023-06-14T03:00:02;5.82;;;4.70;;
12635;SDS011;6383;50.830;7.210;2023-06-14T03:02:32;5.78;;;4.90;;
12635;SDS011;6383;50.830;7.210;2023-06-14T03:05:00;4.72;;;4.32;;
12635;SDS011;6383;50.830;7.210;2023-06-14T03:07:29;4.93;;;4.43;;
12635;SDS011;6383;50.830;7.210;2023-06-14T03:09:57;6.60;;;4.82;;
12635;SDS011;6383;50.830;7.210;2023-06-14T03:12:25;6.88;;;4.88;;
12635;SDS011;6383;50.830;7.210;2023-06-14T03:14:58;6.93;;;4.65;;
12635;SDS011;6383;50.830;7.210;2023-06-14T03:17:28;5.70;;;4.55;;
12635;SDS011;6383;50.830;7.210;2023-06-14T03:20:01;4.72;;;4.20;;
12635;SDS011;6383;50.830;7.210;2023-06-14T03:22:30;7.78;;;4.70;;
12635;SDS011;6383;50.830;7.210;2023-06-14T03:25:00;5.53;;;4.03;;
12635;SDS011;6383;50.830;7.210;2023-06-14T03:27:30;5.87;;;5.20;;
12635;SDS011;6383;50.830;7.210;2023-06-14T03:29:57;7.50;;;4.75;;
12635;SDS011;6383;50.830;7.210;2023-06-14T03:32:24;4.72;;;4.32;;
12635;SDS011;6383;50.830;7.210;2023-06-14T03:34:53;5.70;;;5.10;;
12635;SDS011;6383;50.830;7.210;2023-06-14T03:37:24;5.35;;;4.65;;
12635;SDS011;6383;50.830;7.210;2023-06-14T03:39:53;7.65;;;4.72;;
12635;SDS011;6383;50.830;7.210;2023-06-14T03:42:22;5.43;;;4.03;;
12635;SDS011;6383;50.830;7.210;2023-06-14T03:44:53;6.45;;;4.05;;
12635;SDS011;6383;50.830;7.210;2023-06-14T03:47:26;5.40;;;4.00;;
12635;SDS011;6383;50.830;7.210;2023-06-14T03:49:57;4.70;;;4.20;;
12635;SDS011;6383;50.830;7.210;2023-06-14T03:52:29;4.43;;;3.90;;
12635;SDS011;6383;50.830;7.210;2023-06-14T03:54:57;4.90;;;4.10;;
12635;SDS011;6383;50.830;7.210;2023-06-14T03:57:29;6.80;;;4.18;;
12635;SDS011;6383;50.830;7.210;2023-06-14T03:59:58;4.43;;;3.88;;
12635;SDS011;6383;50.830;7.210;2023-06-14T04:02:25;6.03;;;4.03;;
12635;SDS011;6383;50.830;7.210;2023-06-14T04:04:56;7.70;;;4.53;;
12635;SDS011;6383;50.830;7.210;2023-06-14T04:07:24;6.25;;;4.00;;
12635;SDS011;6383;50.830;7.210;2023-06-14T04:09:57;5.10;;;4.13;;
12635;SDS011;6383;50.830;7.210;2023-06-14T04:12:26;7.32;;;3.95;;
12635;SDS011;6383;50.830;7.210;2023-06-14T04:14:53;5.15;;;3.63;;
12635;SDS011;6383;50.830;7.210;2023-06-14T04:17:21;4.38;;;3.88;;
12635;SDS011;6383;50.830;7.210;2023-06-14T04:19:49;7.20;;;3.95;;
12635;SDS011;6383;50.830;7.210;2023-06-14T04:22:18;6.35;;;4.07;;
12635;SDS011;6383;50.830;7.210;2023-06-14T04:24:46;4.72;;;3.80;;
12635;SDS011;6383;50.830;7.210;2023-06-14T04:27:16;5.47;;;4.57;;
12635;SDS011;6383;50.830;7.210;2023-06-14T04:29:49;7.88;;;4.50;;
12635;SDS011;6383;50.830;7.210;2023-06-14T04:32:20;9.40;;;3.90;;
12635;SDS011;6383;50.830;7.210;2023-06-14T04:34:49;5.07;;;3.83;;
12635;SDS011;6383;50.830;7.210;2023-06-14T04:37:21;6.72;;;3.88;;
12635;SDS011;6383;50.830;7.210;2023-06-14T04:39:50;6.10;;;3.97;;
12635;SDS011;6383;50.830;7.210;2023-06-14T04:42:19;5.03;;;3.70;;
12635;SDS011;6383;50.830;7.210;2023-06-14T04:44:48;4.47;;;4.03;;
12635;SDS011;6383;50.830;7.210;2023-06-14T04:47:17;6.63;;;3.80;;
12635;SDS011;6383;50.830;7.210;2023-06-14T04:49:45;4.38;;;3.97;;
12635;SDS011;6383;50.830;7.210;2023-06-14T04:52:14;6.00;;;3.95;;
12635;SDS011;6383;50.830;7.210;2023-06-14T04:54:44;5.78;;;4.43;;
12635;SDS011;6383;50.830;7.210;2023-06-14T04:57:13;8.25;;;3.92;;
12635;SDS011;6383;50.830;7.210;2023-06-14T04:59:46;5.60;;;4.07;;
12635;SDS011;6383;50.830;7.210;2023-06-14T05:02:15;5.18;;;4.55;;
12635;SDS011;6383;50.830;7.210;2023-06-14T05:04:44;4.90;;;3.83;;
12635;SDS011;6383;50.830;7.210;2023-06-14T05:07:15;9.43;;;4.28;;
12635;SDS011;6383;50.830;7.210;2023-06-14T05:09:44;4.13;;;3.83;;
12635;SDS011;6383;50.830;7.210;2023-06-14T05:12:12;6.13;;;3.93;;
12635;SDS011;6383;50.830;7.210;2023-06-14T05:14:46;3.90;;;3.47;;
12635;SDS011;6383;50.830;7.210;2023-06-14T05:17:15;4.40;;;3.75;;
12635;SDS011;6383;50.830;7.210;2023-06-14T05:19:43;6.60;;;4.05;;
12635;SDS011;6383;50.830;7.210;2023-06-14T05:22:12;4.63;;;3.90;;
12635;SDS011;6383;50.830;7.210;2023-06-14T05:24:41;5.18;;;3.95;;
12635;SDS011;6383;50.830;7.210;2023-06-14T05:27:10;6.78;;;3.88;;
12635;SDS011;6383;50.830;7.210;2023-06-14T05:29:39;6.82;;;3.90;;
12635;SDS011;6383;50.830;7.210;2023-06-14T05:32:13;7.40;;;3.97;;
12635;SDS011;6383;50.830;7.210;2023-06-14T05:34:42;7.30;;;4.30;;
12635;SDS011;6383;50.830;7.210;2023-06-14T05:37:12;6.22;;;3.80;;
12635;SDS011;6383;50.830;7.210;2023-06-14T05:39:44;5.00;;;3.50;;
12635;SDS011;6383;50.830;7.210;2023-06-14T05:42:11;6.50;;;3.72;;
12635;SDS011;6383;50.830;7.210;2023-06-14T05:44:40;5.65;;;3.30;;
12635;SDS011;6383;50.830;7.210;2023-06-14T05:47:09;8.30;;;3.53;;
12635;SDS011;6383;50.830;7.210;2023-06-14T05:49:39;8.48;;;3.50;;
12635;SDS011;6383;50.830;7.210;2023-06-14T05:52:09;6.43;;;3.70;;
12635;SDS011;6383;50.830;7.210;2023-06-14T05:54:40;4.18;;;3.45;;
12635;SDS011;6383;50.830;7.210;2023-06-14T05:57:10;4.13;;;3.37;;
12635;SDS011;6383;50.830;7.210;2023-06-14T05:59:39;4.53;;;3.72;;
12635;SDS011;6383;50.830;7.210;2023-06-14T06:02:06;6.35;;;3.88;;
12635;SDS011;6383;50.830;7.210;2023-06-14T06:04:34;5.40;;;3.30;;
12635;SDS011;6383;50.830;7.210;2023-06-14T06:07:05;4.47;;;3.60;;
12635;SDS011;6383;50.830;7.210;2023-06-14T06:09:33;3.95;;;3.40;;
12635;SDS011;6383;50.830;7.210;2023-06-14T06:12:04;3.53;;;3.20;;
12635;SDS011;6383;50.830;7.210;2023-06-14T06:14:37;9.65;;;3.70;;
12635;SDS011;6383;50.830;7.210;2023-06-14T06:17:08;6.30;;;3.10;;
12635;SDS011;6383;50.830;7.210;2023-06-14T06:19:36;3.63;;;2.65;;
12635;SDS011;6383;50.830;7.210;2023-06-14T06:22:06;6.30;;;2.80;;
12635;SDS011;6383;50.830;7.210;2023-06-14T06:24:35;5.10;;;3.10;;
12635;SDS011;6383;50.830;7.210;2023-06-14T06:27:05;3.92;;;2.65;;
12635;SDS011;6383;50.830;7.210;2023-06-14T06:29:34;5.80;;;2.60;;
12635;SDS011;6383;50.830;7.210;2023-06-14T06:32:03;5.75;;;2.88;;
12635;SDS011;6383;50.830;7.210;2023-06-14T06:34:33;5.28;;;2.63;;
12635;SDS011;6383;50.830;7.210;2023-06-14T06:37:03;6.53;;;2.47;;
12635;SDS011;6383;50.830;7.210;2023-06-14T06:39:34;2.45;;;2.25;;
12635;SDS011;6383;50.830;7.210;2023-06-14T06:42:04;4.65;;;2.40;;
12635;SDS011;6383;50.830;7.210;2023-06-14T06:44:34;5.00;;;2.37;;
12635;SDS011;6383;50.830;7.210;2023-06-14T06:47:03;4.07;;;2.50;;
12635;SDS011;6383;50.830;7.210;2023-06-14T06:49:31;4.50;;;2.50;;
12635;SDS011;6383;50.830;7.210;2023-06-14T06:51:59;6.93;;;2.83;;
12635;SDS011;6383;50.830;7.210;2023-06-14T06:54:29;4.88;;;2.80;;
12635;SDS011;6383;50.830;7.210;2023-06-14T06:57:01;5.85;;;2.38;;
12635;SDS011;6383;50.830;7.210;2023-06-14T06:59:30;3.10;;;2.43;;
12635;SDS011;6383;50.830;7.210;2023-06-14T07:01:59;4.03;;;2.10;;
12635;SDS011;6383;50.830;7.210;2023-06-14T07:04:28;4.85;;;2.00;;
12635;SDS011;6383;50.830;7.210;2023-06-14T07:06:58;2.97;;;2.05;;
12635;SDS011;6383;50.830;7.210;2023-06-14T07:09:28;2.60;;;2.03;;
12635;SDS011;6383;50.830;7.210;2023-06-14T07:11:55;3.40;;;1.98;;
12635;SDS011;6383;50.830;7.210;2023-06-14T07:14:26;4.35;;;2.50;;
12635;SDS011;6383;50.830;7.210;2023-06-14T07:16:57;6.38;;;2.35;;
12635;SDS011;6383;50.830;7.210;2023-06-14T07:19:26;3.97;;;2.60;;
12635;SDS011;6383;50.830;7.210;2023-06-14T07:21:53;5.13;;;2.40;;
12635;SDS011;6383;50.830;7.210;2023-06-14T07:24:22;5.35;;;2.05;;
12635;SDS011;6383;50.830;7.210;2023-06-14T07:26:51;4.37;;;1.90;;
12635;SDS011;6383;50.830;7.210;2023-06-14T07:29:20;5.95;;;2.03;;
12635;SDS011;6383;50.830;7.210;2023-06-14T07:31:50;2.45;;;1.63;;
12635;SDS011;6383;50.830;7.210;2023-06-14T07:34:22;1.73;;;1.63;;
12635;SDS011;6383;50.830;7.210;2023-06-14T07:36:49;2.15;;;1.60;;
12635;SDS011;6383;50.830;7.210;2023-06-14T07:39:19;2.90;;;1.70;;
12635;SDS011;6383;50.830;7.210;2023-06-14T07:41:48;4.57;;;1.75;;
12635;SDS011;6383;50.830;7.210;2023-06-14T07:44:17;3.53;;;1.60;;
12635;SDS011;6383;50.830;7.210;2023-06-14T07:46:45;1.73;;;1.60;;
12635;SDS011;6383;50.830;7.210;2023-06-14T07:49:25;1.67;;;1.40;;
12635;SDS011;6383;50.830;7.210;2023-06-14T07:52:26;2.72;;;1.27;;
12635;SDS011;6383;50.830;7.210;2023-06-14T07:54:57;4.18;;;1.48;;
12635;SDS011;6383;50.830;7.210;2023-06-14T07:57:27;3.70;;;1.30;;
12635;SDS011;6383;50.830;7.210;2023-06-14T07:59:56;2.55;;;1.58;;
12635;SDS011;6383;50.830;7.210;2023-06-14T08:02:23;3.50;;;1.42;;
12635;SDS011;6383;50.830;7.210;2023-06-14T08:04:53;2.10;;;1.25;;
12635;SDS011;6383;50.830;7.210;2023-06-14T08:07:25;1.80;;;1.45;;
12635;SDS011;6383;50.830;7.210;2023-06-14T08:09:52;2.70;;;1.45;;
12635;SDS011;6383;50.830;7.210;2023-06-14T08:12:23;2.70;;;1.60;;
12635;SDS011;6383;50.830;7.210;2023-06-14T08:14:52;1.75;;;1.65;;
12635;SDS011;6383;50.830;7.210;2023-06-14T08:17:21;2.38;;;1.42;;
12635;SDS011;6383;50.830;7.210;2023-06-14T08:19:50;3.28;;;1.45;;
12635;SDS011;6383;50.830;7.210;2023-06-14T08:22:20;4.38;;;1.27;;
12635;SDS011;6383;50.830;7.210;2023-06-14T08:24:52;2.00;;;1.30;;
12635;SDS011;6383;50.830;7.210;2023-06-14T08:27:21;3.30;;;1.30;;
12635;SDS011;6383;50.830;7.210;2023-06-14T08:29:51;4.22;;;1.58;;
12635;SDS011;6383;50.830;7.210;2023-06-14T08:32:20;4.68;;;1.40;;
12635;SDS011;6383;50.830;7.210;2023-06-14T08:34:49;2.50;;;1.27;;
12635;SDS011;6383;50.830;7.210;2023-06-14T08:37:18;3.50;;;1.50;;
12635;SDS011;6383;50.830;7.210;2023-06-14T08:39:49;2.47;;;1.40;;
12635;SDS011;6383;50.830;7.210;2023-06-14T08:42:18;2.20;;;1.30;;
12635;SDS011;6383;50.830;7.210;2023-06-14T08:44:49;3.10;;;1.30;;
12635;SDS011;6383;50.830;7.210;2023-06-14T08:47:17;3.58;;;1.50;;
12635;SDS011;6383;50.830;7.210;2023-06-14T08:49:48;2.13;;;1.40;;
12635;SDS011;6383;50.830;7.210;2023-06-14T08:52:18;3.20;;;1.70;;
12635;SDS011;6383;50.830;7.210;2023-06-14T08:54:53;2.83;;;1.27;;
12635;SDS011;6383;50.830;7.210;2023-06-14T08:57:23;4.38;;;1.40;;
12635;SDS011;6383;50.830;7.210;2023-06-14T08:59:53;5.50;;;1.92;;
12635;SDS011;6383;50.830;7.210;2023-06-14T09:02:22;2.00;;;1.50;;
12635;SDS011;6383;50.830;7.210;2023-06-14T09:04:51;2.38;;;1.30;;
12635;SDS011;6383;50.830;7.210;2023-06-14T09:07:19;1.58;;;1.48;;
12635;SDS011;6383;50.830;7.210;2023-06-14T09:09:48;2.70;;;1.50;;
12635;SDS011;6383;50.830;7.210;2023-06-14T09:12:19;3.00;;;1.70;;
12635;SDS011;6383;50.830;7.210;2023-06-14T09:14:46;2.10;;;1.30;;
12635;SDS011;6383;50.830;7.210;2023-06-14T09:17:14;1.67;;;1.58;;
12635;SDS011;6383;50.830;7.210;2023-06-14T09:19:42;4.65;;;2.13;;
12635;SDS011;6383;50.830;7.210;2023-06-14T09:22:11;5.15;;;1.58;;
12635;SDS011;6383;50.830;7.210;2023-06-14T09:24:41;3.58;;;1.77;;
12635;SDS011;6383;50.830;7.210;2023-06-14T09:27:08;2.55;;;1.70;;
12635;SDS011;6383;50.830;7.210;2023-06-14T09:29:44;3.93;;;1.60;;
12635;SDS011;6383;50.830;7.210;2023-06-14T09:32:13;1.50;;;1.40;;
12635;SDS011;6383;50.830;7.210;2023-06-14T09:34:42;4.82;;;1.48;;
12635;SDS011;6383;50.830;7.210;2023-06-14T09:37:11;2.47;;;1.30;;
12635;SDS011;6383;50.830;7.210;2023-06-14T09:39:48;4.25;;;1.35;;
12635;SDS011;6383;50.830;7.210;2023-06-14T09:42:17;2.25;;;1.30;;
12635;SDS011;6383;50.830;7.210;2023-06-14T09:51:41;1.48;;;1.38;;
12635;SDS011;6383;50.830;7.210;2023-06-14T09:54:14;4.70;;;1.45;;
12635;SDS011;6383;50.830;7.210;2023-06-14T09:56:44;2.97;;;1.58;;
12635;SDS011;6383;50.830;7.210;2023-06-14T09:59:16;2.33;;;1.60;;
12635;SDS011;6383;50.830;7.210;2023-06-14T10:01:54;1.58;;;1.35;;
12635;SDS011;6383;50.830;7.210;2023-06-14T10:04:26;1.98;;;1.40;;
12635;SDS011;6383;50.830;7.210;2023-06-14T10:07:00;1.75;;;1.40;;
12635;SDS011;6383;50.830;7.210;2023-06-14T10:09:28;1.88;;;1.35;;
12635;SDS011;6383;50.830;7.210;2023-06-14T10:11:58;3.10;;;1.45;;
12635;SDS011;6383;50.830;7.210;2023-06-14T10:14:27;1.45;;;1.20;;
12635;SDS011;6383;50.830;7.210;2023-06-14T10:16:59;1.48;;;1.38;;
12635;SDS011;6383;50.830;7.210;2023-06-14T10:19:37;1.60;;;1.40;;
12635;SDS011;6383;50.830;7.210;2023-06-14T10:22:14;1.13;;;1.02;;
12635;SDS011;6383;50.830;7.210;2023-06-14T10:24:50;2.17;;;1.42;;
12635;SDS011;6383;50.830;7.210;2023-06-14T10:27:19;3.15;;;1.20;;
12635;SDS011;6383;50.830;7.210;2023-06-14T10:30:01;1.40;;;1.30;;
12635;SDS011;6383;50.830;7.210;2023-06-14T10:32:32;1.20;;;1.10;;
12635;SDS011;6383;50.830;7.210;2023-06-14T10:35:00;1.83;;;1.50;;
12635;SDS011;6383;50.830;7.210;2023-06-14T10:37:31;1.45;;;1.30;;
12635;SDS011;6383;50.830;7.210;2023-06-14T10:40:00;1.95;;;1.35;;
12635;SDS011;6383;50.830;7.210;2023-06-14T10:42:31;3.50;;;1.53;;
12635;SDS011;6383;50.830;7.210;2023-06-14T10:45:00;3.20;;;1.45;;
12635;SDS011;6383;50.830;7.210;2023-06-14T10:47:30;1.73;;;1.50;;
12635;SDS011;6383;50.830;7.210;2023-06-14T10:50:05;2.10;;;1.30;;
12635;SDS011;6383;50.830;7.210;2023-06-14T10:52:37;3.17;;;1.50;;
12635;SDS011;6383;50.830;7.210;2023-06-14T10:55:09;2.60;;;1.25;;
12635;SDS011;6383;50.830;7.210;2023-06-14T10:57:39;1.90;;;1.45;;
12635;SDS011;6383;50.830;7.210;2023-06-14T11:03:36;2.90;;;1.55;;
12635;SDS011;6383;50.830;7.210;2023-06-14T11:06:21;2.83;;;1.20;;
12635;SDS011;6383;50.830;7.210;2023-06-14T11:12:10;7.80;;;1.50;;
12635;SDS011;6383;50.830;7.210;2023-06-14T11:14:40;1.40;;;1.30;;
12635;SDS011;6383;50.830;7.210;2023-06-14T11:17:08;2.80;;;1.25;;
12635;SDS011;6383;50.830;7.210;2023-06-14T11:19:37;2.22;;;1.20;;
12635;SDS011;6383;50.830;7.210;2023-06-14T11:22:06;2.63;;;1.25;;
12635;SDS011;6383;50.830;7.210;2023-06-14T11:24:36;1.25;;;1.15;;
12635;SDS011;6383;50.830;7.210;2023-06-14T11:27:06;2.10;;;1.17;;
12635;SDS011;6383;50.830;7.210;2023-06-14T11:29:37;3.97;;;1.30;;
12635;SDS011;6383;50.830;7.210;2023-06-14T11:32:07;3.13;;;1.38;;
12635;SDS011;6383;50.830;7.210;2023-06-14T11:34:39;1.70;;;1.00;;
12635;SDS011;6383;50.830;7.210;2023-06-14T11:37:10;2.00;;;1.10;;
12635;SDS011;6383;50.830;7.210;2023-06-14T11:39:45;1.75;;;1.00;;
12635;SDS011;6383;50.830;7.210;2023-06-14T11:42:14;1.40;;;1.00;;
12635;SDS011;6383;50.830;7.210;2023-06-14T11:44:46;1.15;;;0.95;;
12635;SDS011;6383;50.830;7.210;2023-06-14T11:47:15;1.13;;;0.80;;
12635;SDS011;6383;50.830;7.210;2023-06-14T11:49:44;2.28;;;0.90;;
12635;SDS011;6383;50.830;7.210;2023-06-14T11:52:12;5.68;;;0.90;;
12635;SDS011;6383;50.830;7.210;2023-06-14T11:54:42;3.15;;;1.05;;
12635;SDS011;6383;50.830;7.210;2023-06-14T11:57:11;1.60;;;1.03;;
12635;SDS011;6383;50.830;7.210;2023-06-14T11:59:40;2.70;;;0.87;;
12635;SDS011;6383;50.830;7.210;2023-06-14T12:02:15;2.10;;;1.00;;
12635;SDS011;6383;50.830;7.210;2023-06-14T12:04:46;2.80;;;0.80;;
12635;SDS011;6383;50.830;7.210;2023-06-14T12:07:15;1.92;;;0.90;;
12635;SDS011;6383;50.830;7.210;2023-06-14T12:12:37;2.37;;;0.77;;
12635;SDS011;6383;50.830;7.210;2023-06-14T12:15:07;4.47;;;1.05;;
12635;SDS011;6383;50.830;7.210;2023-06-14T12:17:41;0.90;;;0.80;;
12635;SDS011;6383;50.830;7.210;2023-06-14T12:20:10;1.17;;;0.80;;
12635;SDS011;6383;50.830;7.210;2023-06-14T12:22:46;1.42;;;1.00;;
12635;SDS011;6383;50.830;7.210;2023-06-14T12:25:28;1.30;;;0.90;;
12635;SDS011;6383;50.830;7.210;2023-06-14T12:27:59;1.05;;;1.00;;
12635;SDS011;6383;50.830;7.210;2023-06-14T12:30:30;1.80;;;1.67;;
12635;SDS011;6383;50.830;7.210;2023-06-14T12:33:02;1.95;;;1.33;;
12635;SDS011;6383;50.830;7.210;2023-06-14T12:35:32;1.45;;;1.20;;
12635;SDS011;6383;50.830;7.210;2023-06-14T12:38:00;2.75;;;1.20;;
12635;SDS011;6383;50.830;7.210;2023-06-14T12:40:31;2.63;;;1.52;;
12635;SDS011;6383;50.830;7.210;2023-06-14T12:43:00;3.08;;;0.98;;
12635;SDS011;6383;50.830;7.210;2023-06-14T12:45:28;2.30;;;1.17;;
12635;SDS011;6383;50.830;7.210;2023-06-14T12:47:58;2.67;;;1.17;;
12635;SDS011;6383;50.830;7.210;2023-06-14T12:50:27;2.33;;;1.10;;
12635;SDS011;6383;50.830;7.210;2023-06-14T12:52:56;5.50;;;1.38;;
12635;SDS011;6383;50.830;7.210;2023-06-14T12:55:25;1.80;;;1.33;;
12635;SDS011;6383;50.830;7.210;2023-06-14T12:57:54;2.90;;;1.27;;
12635;SDS011;6383;50.830;7.210;2023-06-14T13:00:23;1.70;;;1.23;;
12635;SDS011;6383;50.830;7.210;2023-06-14T13:02:53;4.00;;;1.45;;
12635;SDS011;6383;50.830;7.210;2023-06-14T13:05:22;1.40;;;1.27;;
12635;SDS011;6383;50.830;7.210;2023-06-14T13:07:56;2.75;;;1.10;;
12635;SDS011;6383;50.830;7.210;2023-06-14T13:10:25;2.67;;;1.30;;
12635;SDS011;6383;50.830;7.210;2023-06-14T13:12:54;1.73;;;1.33;;
12635;SDS011;6383;50.830;7.210;2023-06-14T13:15:25;1.40;;;1.30;;
12635;SDS011;6383;50.830;7.210;2023-06-14T13:17:55;2.58;;;1.23;;
12635;SDS011;6383;50.830;7.210;2023-06-14T13:20:22;1.63;;;1.23;;
12635;SDS011;6383;50.830;7.210;2023-06-14T13:22:52;2.17;;;1.53;;
12635;SDS011;6383;50.830;7.210;2023-06-14T13:25:22;1.40;;;1.10;;
12635;SDS011;6383;50.830;7.210;2023-06-14T13:27:51;2.25;;;1.50;;
12635;SDS011;6383;50.830;7.210;2023-06-14T13:30:21;2.10;;;1.55;;
12635;SDS011;6383;50.830;7.210;2023-06-14T13:32:50;4.22;;;1.38;;
12635;SDS011;6383;50.830;7.210;2023-06-14T13:35:18;3.38;;;1.23;;
12635;SDS011;6383;50.830;7.210;2023-06-14T13:37:50;1.30;;;1.10;;
12635;SDS011;6383;50.830;7.210;2023-06-14T13:40:20;4.53;;;1.30;;
12635;SDS011;6383;50.830;7.210;2023-06-14T13:42:50;3.33;;;1.60;;
12635;SDS011;6383;50.830;7.210;2023-06-14T13:45:19;2.10;;;1.30;;
12635;SDS011;6383;50.830;7.210;2023-06-14T13:47:48;2.30;;;1.38;;
12635;SDS011;6383;50.830;7.210;2023-06-14T13:50:26;5.13;;;1.42;;
12635;SDS011;6383;50.830;7.210;2023-06-14T13:52:59;2.30;;;1.33;;
12635;SDS011;6383;50.830;7.210;2023-06-14T13:55:41;2.13;;;1.13;;
12635;SDS011;6383;50.830;7.210;2023-06-14T13:58:16;3.05;;;1.38;;
12635;SDS011;6383;50.830;7.210;2023-06-14T14:00:55;3.08;;;1.35;;
12635;SDS011;6383;50.830;7.210;2023-06-14T14:03:25;1.98;;;1.30;;
12635;SDS011;6383;50.830;7.210;2023-06-14T14:05:55;3.90;;;1.63;;
12635;SDS011;6383;50.830;7.210;2023-06-14T14:08:24;3.85;;;1.20;;
12635;SDS011;6383;50.830;7.210;2023-06-14T14:11:11;3.97;;;1.60;;
12635;SDS011;6383;50.830;7.210;2023-06-14T14:13:49;3.40;;;1.10;;
12635;SDS011;6383;50.830;7.210;2023-06-14T14:16:25;1.10;;;0.98;;
12635;SDS011;6383;50.830;7.210;2023-06-14T14:18:56;2.60;;;1.70;;
12635;SDS011;6383;50.830;7.210;2023-06-14T14:21:29;2.03;;;1.92;;
12635;SDS011;6383;50.830;7.210;2023-06-14T14:23:59;3.67;;;1.33;;
12635;SDS011;6383;50.830;7.210;2023-06-14T14:26:34;1.85;;;1.20;;
12635;SDS011;6383;50.830;7.210;2023-06-14T14:29:07;2.73;;;1.13;;
12635;SDS011;6383;50.830;7.210;2023-06-14T14:31:38;4.80;;;2.63;;
12635;SDS011;6383;50.830;7.210;2023-06-14T14:34:10;1.55;;;1.40;;
12635;SDS011;6383;50.830;7.210;2023-06-14T14:36:41;1.70;;;1.45;;
12635;SDS011;6383;50.830;7.210;2023-06-14T14:39:29;3.83;;;1.67;;
12635;SDS011;6383;50.830;7.210;2023-06-14T14:42:14;3.90;;;1.23;;
12635;SDS011;6383;50.830;7.210;2023-06-14T14:44:43;1.50;;;1.25;;
12635;SDS011;6383;50.830;7.210;2023-06-14T14:47:21;2.53;;;1.35;;
12635;SDS011;6383;50.830;7.210;2023-06-14T14:49:53;2.80;;;1.30;;
12635;SDS011;6383;50.830;7.210;2023-06-14T14:52:27;2.15;;;1.48;;
12635;SDS011;6383;50.830;7.210;2023-06-14T14:54:59;3.65;;;1.10;;
12635;SDS011;6383;50.830;7.210;2023-06-14T14:57:28;3.58;;;1.20;;
12635;SDS011;6383;50.830;7.210;2023-06-14T14:59:58;4.72;;;1.30;;
12635;SDS011;6383;50.830;7.210;2023-06-14T15:02:26;4.03;;;1.13;;
12635;SDS011;6383;50.830;7.210;2023-06-14T15:04:55;3.25;;;1.15;;
12635;SDS011;6383;50.830;7.210;2023-06-14T15:07:28;3.78;;;1.60;;
12635;SDS011;6383;50.830;7.210;2023-06-14T15:09:55;1.52;;;1.20;;
12635;SDS011;6383;50.830;7.210;2023-06-14T15:12:22;1.35;;;1.25;;
12635;SDS011;6383;50.830;7.210;2023-06-14T15:14:51;2.90;;;1.73;;
12635;SDS011;6383;50.830;7.210;2023-06-14T15:17:23;2.88;;;1.30;;
12635;SDS011;6383;50.830;7.210;2023-06-14T15:19:52;1.58;;;1.48;;
12635;SDS011;6383;50.830;7.210;2023-06-14T15:22:20;3.17;;;1.67;;
12635;SDS011;6383;50.830;7.210;2023-06-14T15:24:48;1.98;;;1.50;;
12635;SDS011;6383;50.830;7.210;2023-06-14T15:27:18;3.58;;;1.42;;
12635;SDS011;6383;50.830;7.210;2023-06-14T15:29:47;1.77;;;1.67;;
12635;SDS011;6383;50.830;7.210;2023-06-14T15:32:16;1.38;;;1.20;;
12635;SDS011;6383;50.830;7.210;2023-06-14T15:34:45;1.65;;;1.33;;